createdAt,value
2023-04-05T00:00:13.582Z,4.40
2023-04-05T00:02:42.661Z,4.40
2023-04-05T00:05:14.845Z,4.30
2023-04-05T00:07:50.459Z,4.30
2023-04-05T00:10:19.103Z,4.20
2023-04-05T00:12:46.776Z,4.20
2023-04-05T00:15:14.164Z,4.30
2023-04-05T00:17:41.697Z,4.10
2023-04-05T00:20:13.568Z,4.10
2023-04-05T00:22:45.000Z,4.00
2023-04-05T00:25:13.405Z,4.00
2023-04-05T00:27:44.922Z,3.90
2023-04-05T00:30:13.137Z,4.00
2023-04-05T00:32:40.525Z,4.00
2023-04-05T00:35:08.350Z,4.00
2023-04-05T00:37:36.202Z,3.90
2023-04-05T00:40:05.566Z,3.80
2023-04-05T00:42:32.728Z,3.70
2023-04-05T00:45:03.384Z,3.70
2023-04-05T00:47:30.821Z,3.60
2023-04-05T00:50:00.136Z,3.60
2023-04-05T00:52:31.412Z,3.50
2023-04-05T00:55:03.400Z,3.40
2023-04-05T00:57:33.535Z,3.40
2023-04-05T01:00:01.546Z,3.30
2023-04-05T01:02:42.022Z,3.60
2023-04-05T01:05:24.553Z,3.60
2023-04-05T01:08:00.144Z,3.70
2023-04-05T01:10:35.575Z,3.70
2023-04-05T01:13:10.446Z,3.80
2023-04-05T01:15:38.807Z,3.40
2023-04-05T01:18:08.969Z,3.30
2023-04-05T01:20:41.326Z,3.20
2023-04-05T01:23:39.622Z,3.20
2023-04-05T01:26:43.566Z,3.10
2023-04-05T01:29:36.141Z,3.10
2023-04-05T01:32:37.798Z,3.10
2023-04-05T01:35:17.301Z,3.00
2023-04-05T01:37:50.105Z,3.10
2023-04-05T01:40:19.176Z,2.90
2023-04-05T01:42:47.420Z,2.80
2023-04-05T01:45:16.059Z,2.80
2023-04-05T01:47:43.730Z,2.70
2023-04-05T01:50:12.270Z,2.80
2023-04-05T01:52:40.540Z,2.80
2023-04-05T01:55:08.863Z,2.80
2023-04-05T01:57:48.340Z,2.70
2023-04-05T02:00:17.588Z,2.80
2023-04-05T02:02:46.578Z,2.60
2023-04-05T02:05:14.207Z,2.50
2023-04-05T02:07:42.807Z,2.70
2023-04-05T02:10:11.100Z,2.60
2023-04-05T02:12:39.784Z,2.50
2023-04-05T02:15:08.007Z,2.50
2023-04-05T02:17:40.301Z,2.40
2023-04-05T02:20:09.067Z,2.60
2023-04-05T02:22:37.186Z,2.30
2023-04-05T02:25:10.073Z,2.20
2023-04-05T02:27:38.823Z,2.20
2023-04-05T02:30:06.873Z,2.20
2023-04-05T02:32:36.320Z,2.20
2023-04-05T02:35:05.521Z,2.20
2023-04-05T02:37:35.345Z,2.10
2023-04-05T02:40:06.081Z,2.10
2023-04-05T02:42:35.578Z,2.00
2023-04-05T02:45:02.930Z,2.10
2023-04-05T02:47:32.025Z,2.20
2023-04-05T02:50:02.601Z,2.20
2023-04-05T02:52:38.294Z,2.10
2023-04-05T02:55:07.501Z,2.00
2023-04-05T02:57:36.953Z,2.00
2023-04-05T03:00:19.562Z,2.00
2023-04-05T03:02:46.702Z,2.10
2023-04-05T03:05:20.954Z,2.20
2023-04-05T03:07:52.394Z,2.20
2023-04-05T03:10:26.454Z,2.20
2023-04-05T03:13:01.594Z,2.00
2023-04-05T03:15:34.169Z,2.00
2023-04-05T03:18:07.973Z,1.80
2023-04-05T03:20:41.780Z,1.70
2023-04-05T03:23:17.381Z,1.70
2023-04-05T03:25:46.614Z,1.50
2023-04-05T03:28:16.223Z,1.70
2023-04-05T03:30:47.246Z,1.50
2023-04-05T03:33:21.788Z,1.50
2023-04-05T03:35:52.597Z,1.50
2023-04-05T03:38:21.644Z,1.50
2023-04-05T03:41:07.277Z,1.60
2023-04-05T03:43:36.181Z,1.40
2023-04-05T03:46:06.100Z,1.60
2023-04-05T03:48:36.495Z,1.60
2023-04-05T03:51:09.908Z,1.50
2023-04-05T03:53:40.112Z,1.40
2023-04-05T03:56:24.656Z,1.40
2023-04-05T03:58:53.426Z,1.40
2023-04-05T04:01:27.472Z,1.40
2023-04-05T04:04:13.815Z,1.40
2023-04-05T04:06:48.674Z,1.40
2023-04-05T04:09:19.564Z,1.30
2023-04-05T04:11:48.400Z,1.30
2023-04-05T04:14:23.800Z,1.30
2023-04-05T04:17:37.627Z,1.40
2023-04-05T04:20:29.294Z,1.30
2023-04-05T04:23:27.411Z,1.20
2023-04-05T04:26:07.241Z,1.20
2023-04-05T04:29:06.998Z,1.30
2023-04-05T04:31:53.479Z,1.40
2023-04-05T04:34:54.684Z,1.10
2023-04-05T04:37:47.104Z,1.10
2023-04-05T04:40:51.038Z,1.00
2023-04-05T04:43:27.461Z,0.90
2023-04-05T04:46:11.064Z,0.90
2023-04-05T04:48:55.284Z,0.90
2023-04-05T04:51:35.084Z,1.10
2023-04-05T04:54:02.625Z,1.20
2023-04-05T04:56:32.859Z,1.40
2023-04-05T04:59:01.833Z,1.20
2023-04-05T05:01:29.127Z,1.10
2023-04-05T05:03:56.317Z,1.00
2023-04-05T05:06:30.432Z,0.90
2023-04-05T05:08:57.645Z,0.90
2023-04-05T05:11:27.420Z,1.00
2023-04-05T05:13:58.094Z,1.00
2023-04-05T05:16:32.322Z,0.80
2023-04-05T05:19:00.139Z,0.80
2023-04-05T05:21:33.848Z,1.10
2023-04-05T05:24:02.609Z,1.10
2023-04-05T05:26:29.782Z,0.90
2023-04-05T05:29:02.252Z,1.10
2023-04-05T05:31:33.265Z,1.10
2023-04-05T05:34:02.005Z,1.00
2023-04-05T05:36:29.191Z,1.00
2023-04-05T05:38:57.287Z,1.00
2023-04-05T05:41:26.769Z,1.10
2023-04-05T05:43:54.518Z,1.30
2023-04-05T05:46:24.957Z,1.20
2023-04-05T05:48:52.181Z,1.50
2023-04-05T05:51:23.931Z,1.30
2023-04-05T05:53:52.182Z,1.50
2023-04-05T05:56:27.126Z,1.70
2023-04-05T05:58:56.182Z,1.80
2023-04-05T06:04:12.491Z,1.80
2023-04-05T06:06:41.670Z,2.00
2023-04-05T06:09:08.740Z,1.90
2023-04-05T06:11:39.044Z,1.90
2023-04-05T06:14:13.630Z,2.10
2023-04-05T06:16:40.787Z,2.00
2023-04-05T06:19:08.720Z,2.20
2023-04-05T06:21:41.549Z,2.60
2023-04-05T06:24:12.214Z,2.50
2023-04-05T06:26:39.640Z,2.30
2023-04-05T06:29:07.625Z,2.40
2023-04-05T06:31:40.966Z,2.60
2023-04-05T06:34:08.586Z,2.70
2023-04-05T06:36:36.261Z,2.90
2023-04-05T06:39:04.443Z,3.00
2023-04-05T06:41:32.198Z,2.90
2023-04-05T06:44:01.134Z,2.90
2023-04-05T06:46:29.308Z,3.00
2023-04-05T06:49:01.568Z,3.00
2023-04-05T06:51:34.989Z,3.40
2023-04-05T06:54:02.203Z,3.70
2023-04-05T06:56:30.725Z,3.90
2023-04-05T06:58:59.762Z,3.90
2023-04-05T07:01:27.683Z,3.90
2023-04-05T07:03:55.747Z,4.00
2023-04-05T07:06:24.348Z,4.00
2023-04-05T07:08:51.631Z,4.00
2023-04-05T07:11:18.892Z,4.00
2023-04-05T07:13:47.354Z,4.20
2023-04-05T07:16:15.131Z,4.30
2023-04-05T07:18:43.590Z,4.50
2023-04-05T07:21:23.435Z,4.70
2023-04-05T07:23:52.319Z,4.50
2023-04-05T07:26:19.681Z,4.70
2023-04-05T07:28:46.845Z,4.80
2023-04-05T07:31:15.409Z,5.00
2023-04-05T07:33:42.767Z,5.00
2023-04-05T07:36:10.134Z,5.00
2023-04-05T07:38:37.605Z,5.00
2023-04-05T07:41:05.975Z,5.10
2023-04-05T07:43:38.639Z,5.30
2023-04-05T07:46:06.530Z,5.30
2023-04-05T07:48:33.740Z,5.50
2023-04-05T07:51:16.372Z,5.70
2023-04-05T07:53:43.719Z,5.80
2023-04-05T07:56:14.188Z,6.00
2023-04-05T07:58:50.175Z,6.10
2023-04-05T08:01:17.341Z,6.30
2023-04-05T08:03:44.653Z,6.50
2023-04-05T08:06:19.236Z,6.60
2023-04-05T08:08:47.498Z,6.80
2023-04-05T08:11:17.320Z,7.00
2023-04-05T08:13:47.345Z,7.00
2023-04-05T08:16:15.863Z,7.20
2023-04-05T08:18:45.042Z,7.30
2023-04-05T08:21:13.777Z,7.40
2023-04-05T08:23:41.550Z,7.60
2023-04-05T08:26:10.969Z,7.70
2023-04-05T08:28:40.445Z,8.00
2023-04-05T08:31:12.357Z,8.00
2023-04-05T08:33:52.797Z,8.20
2023-04-05T08:36:31.425Z,8.40
2023-04-05T08:39:03.202Z,8.50
2023-04-05T08:41:41.194Z,8.60
2023-04-05T08:44:16.520Z,8.80
2023-04-05T08:46:44.460Z,8.80
2023-04-05T08:49:18.599Z,9.00
2023-04-05T08:51:49.238Z,9.20
2023-04-05T08:54:17.531Z,9.20
2023-04-05T08:56:56.168Z,9.10
2023-04-05T08:59:24.974Z,9.10
2023-04-05T09:02:05.079Z,9.30
2023-04-05T09:04:44.508Z,9.50
2023-04-05T09:07:14.077Z,9.50
2023-04-05T09:09:47.854Z,9.60
2023-04-05T09:12:17.256Z,9.80
2023-04-05T09:14:53.798Z,9.60
2023-04-05T09:17:29.246Z,9.00
2023-04-05T09:19:57.813Z,8.80
2023-04-05T09:22:27.484Z,9.00
2023-04-05T09:24:54.781Z,9.30
2023-04-05T09:27:26.873Z,9.70
2023-04-05T09:29:59.119Z,10.10
2023-04-05T09:32:32.236Z,9.90
2023-04-05T09:35:06.303Z,9.90
2023-04-05T09:38:03.297Z,9.80
2023-04-05T09:40:46.683Z,10.10
2023-04-05T09:43:42.100Z,10.40
2023-04-05T09:46:37.924Z,10.70
2023-04-05T09:49:08.025Z,10.70
2023-04-05T09:51:40.934Z,10.70
2023-04-05T09:57:03.651Z,10.40
2023-04-05T09:59:39.109Z,10.40
2023-04-05T10:02:15.655Z,11.10
2023-04-05T10:04:45.449Z,10.50
2023-04-05T10:07:20.067Z,10.40
2023-04-05T10:09:49.164Z,10.00
2023-04-05T10:12:33.499Z,9.80
2023-04-05T10:15:03.158Z,9.50
2023-04-05T10:17:55.728Z,9.60
2023-04-05T10:20:23.865Z,9.80
2023-04-05T10:23:29.109Z,10.00
2023-04-05T10:26:22.043Z,10.40
2023-04-05T10:28:58.666Z,10.80
2023-04-05T10:31:38.138Z,11.10
2023-04-05T10:34:08.397Z,11.40
2023-04-05T10:37:03.041Z,11.50
2023-04-05T10:39:47.850Z,12.00
2023-04-05T10:42:28.173Z,11.90
2023-04-05T10:45:11.667Z,12.10
2023-04-05T10:47:47.508Z,12.40
2023-04-05T10:50:35.978Z,12.00
2023-04-05T10:53:04.490Z,11.60
2023-04-05T10:55:33.638Z,11.90
2023-04-05T10:58:01.722Z,12.20
2023-04-05T11:00:29.372Z,12.50
2023-04-05T11:02:58.115Z,12.40
2023-04-05T11:05:51.636Z,12.50
2023-04-05T11:08:20.836Z,12.30
2023-04-05T11:13:56.453Z,11.90
2023-04-05T11:16:39.828Z,11.50
2023-04-05T11:19:07.736Z,11.90
2023-04-05T11:21:35.466Z,12.10
2023-04-05T11:24:08.714Z,12.30
2023-04-05T11:26:48.251Z,12.50
2023-04-05T11:29:20.046Z,12.80
2023-04-05T11:32:04.629Z,12.80
2023-04-05T11:34:36.432Z,12.20
2023-04-05T11:37:03.594Z,12.30
2023-04-05T11:39:30.690Z,12.30
2023-04-05T11:42:08.736Z,12.00
2023-04-05T11:44:45.155Z,11.90
2023-04-05T11:47:13.207Z,12.20
2023-04-05T11:49:42.759Z,12.30
2023-04-05T11:52:18.585Z,12.80
2023-04-05T11:54:49.486Z,13.20
2023-04-05T11:57:23.003Z,13.10
2023-04-05T11:59:53.755Z,12.80
2023-04-05T12:02:22.613Z,13.00
2023-04-05T12:05:00.029Z,12.50
2023-04-05T12:07:38.174Z,12.70
2023-04-05T12:10:05.561Z,12.70
2023-04-05T12:12:48.879Z,12.60
2023-04-05T12:15:19.690Z,12.70
2023-04-05T12:17:50.110Z,13.00
2023-04-05T12:20:22.841Z,13.30
2023-04-05T12:22:52.370Z,13.60
2023-04-05T12:25:20.652Z,13.70
2023-04-05T12:27:48.119Z,13.90
2023-04-05T12:30:23.698Z,14.10
2023-04-05T12:32:55.449Z,13.70
2023-04-05T12:35:33.258Z,13.90
2023-04-05T12:38:03.112Z,13.20
2023-04-05T12:40:31.088Z,13.30
2023-04-05T12:43:06.537Z,13.60
2023-04-05T12:45:41.321Z,13.50
2023-04-05T12:48:16.437Z,13.80
2023-04-05T12:50:48.319Z,14.20
2023-04-05T12:53:21.341Z,14.60
2023-04-05T12:55:56.470Z,15.20
2023-04-05T12:58:35.415Z,15.90
2023-04-05T13:01:03.249Z,16.60
2023-04-05T13:03:31.896Z,17.20
2023-04-05T13:05:58.971Z,17.80
2023-04-05T13:08:27.822Z,17.90
2023-04-05T13:10:57.291Z,17.70
2023-04-05T13:13:25.411Z,17.90
2023-04-05T13:15:52.607Z,17.70
2023-04-05T13:18:24.033Z,17.80
2023-04-05T13:20:51.927Z,18.10
2023-04-05T13:23:19.248Z,17.90
2023-04-05T13:25:47.943Z,17.80
2023-04-05T13:28:20.070Z,18.70
2023-04-05T13:30:49.095Z,19.30
2023-04-05T13:36:12.967Z,19.10
2023-04-05T13:38:41.262Z,19.20
2023-04-05T13:41:08.489Z,19.30
2023-04-05T13:43:35.683Z,20.00
2023-04-05T13:46:02.693Z,21.60
2023-04-05T13:48:31.493Z,23.50
2023-04-05T13:50:59.556Z,25.10
2023-04-05T13:53:28.494Z,25.60
2023-04-05T13:55:55.941Z,24.90
2023-04-05T13:58:22.885Z,25.30
2023-04-05T14:00:52.525Z,25.60
2023-04-05T14:03:20.041Z,24.30
2023-04-05T14:05:51.716Z,24.60
2023-04-05T14:08:19.701Z,22.00
2023-04-05T14:10:46.704Z,21.60
2023-04-05T14:13:18.002Z,23.10
2023-04-05T14:15:46.310Z,24.00
2023-04-05T14:18:13.308Z,26.30
2023-04-05T14:20:40.739Z,26.90
2023-04-05T14:23:08.012Z,26.70
2023-04-05T14:25:35.030Z,26.60
2023-04-05T14:28:02.009Z,26.00
2023-04-05T14:30:28.916Z,25.90
2023-04-05T14:32:56.299Z,25.50
2023-04-05T14:35:23.368Z,26.10
2023-04-05T14:37:54.473Z,26.60
2023-04-05T14:40:22.483Z,26.90
2023-04-05T14:42:51.045Z,26.50
2023-04-05T14:45:19.084Z,28.10
2023-04-05T14:47:49.193Z,28.80
2023-04-05T14:50:16.268Z,29.80
2023-04-05T14:52:43.245Z,29.70
2023-04-05T14:55:10.186Z,28.60
2023-04-05T14:57:37.071Z,28.40
2023-04-05T15:00:04.843Z,28.50
2023-04-05T15:02:32.057Z,29.30
2023-04-05T15:05:02.728Z,27.70
2023-04-05T15:07:29.728Z,28.20
2023-04-05T15:09:56.710Z,27.20
2023-04-05T15:12:24.846Z,27.70
2023-04-05T15:14:54.841Z,27.50
2023-04-05T15:17:22.275Z,27.20
2023-04-05T15:19:49.955Z,26.80
2023-04-05T15:22:20.565Z,27.00
2023-04-05T15:24:50.065Z,26.70
2023-04-05T15:27:17.104Z,25.70
2023-04-05T15:29:43.986Z,27.00
2023-04-05T15:32:11.164Z,27.70
2023-04-05T15:34:39.016Z,28.70
2023-04-05T15:37:07.470Z,28.40
2023-04-05T15:39:34.558Z,28.60
2023-04-05T15:42:03.033Z,26.20
2023-04-05T15:44:30.457Z,25.90
2023-04-05T15:46:57.424Z,25.90
2023-04-05T15:49:24.720Z,27.10
2023-04-05T15:51:56.040Z,28.30
2023-04-05T15:54:23.011Z,28.40
2023-04-05T15:56:51.669Z,28.20
2023-04-05T15:59:18.632Z,28.30
2023-04-05T16:01:48.289Z,28.60
2023-04-05T16:04:16.776Z,28.80
2023-04-05T16:06:43.902Z,29.40
2023-04-05T16:09:11.248Z,28.30
2023-04-05T16:11:39.755Z,28.60
2023-04-05T16:14:07.159Z,28.40
2023-04-05T16:16:42.043Z,28.00
2023-04-05T16:19:19.666Z,27.80
2023-04-05T16:21:46.715Z,28.60
2023-04-05T16:24:14.895Z,29.40
2023-04-05T16:26:41.971Z,29.90
2023-04-05T16:29:10.068Z,29.90
2023-04-05T16:31:37.768Z,30.20
2023-04-05T16:34:04.735Z,29.60
2023-04-05T16:51:53.636Z,28.20
2023-04-05T16:54:21.549Z,28.10
2023-04-05T16:56:49.676Z,27.70
2023-04-05T16:59:17.309Z,27.50
2023-04-05T17:01:44.645Z,27.30
2023-04-05T17:04:11.866Z,27.10
2023-04-05T17:06:38.836Z,27.40
2023-04-05T17:09:06.488Z,27.50
2023-04-05T17:11:34.530Z,27.10
2023-04-05T17:14:02.100Z,26.30
2023-04-05T17:16:29.116Z,25.60
2023-04-05T17:18:59.676Z,24.40
2023-04-05T17:21:28.297Z,24.00
2023-04-05T17:23:55.348Z,22.20
2023-04-05T17:26:27.854Z,20.90
2023-04-05T17:28:54.904Z,20.00
2023-04-05T17:31:22.374Z,19.50
2023-04-05T17:33:49.555Z,19.00
2023-04-05T17:36:17.853Z,18.60
2023-04-05T17:38:46.176Z,17.90
2023-04-05T17:41:13.132Z,17.40
2023-04-05T17:43:40.485Z,17.30
2023-04-05T17:46:10.434Z,17.00
2023-04-05T17:48:38.091Z,16.60
2023-04-05T17:51:07.157Z,16.10
2023-04-05T17:53:34.723Z,15.70
2023-04-05T17:56:02.329Z,15.40
2023-04-05T17:58:30.320Z,15.20
2023-04-05T18:00:57.290Z,15.10
2023-04-05T18:03:24.385Z,14.80
2023-04-05T18:05:55.135Z,14.60
2023-04-05T18:08:23.776Z,14.40
2023-04-05T18:10:57.592Z,14.30
2023-04-05T18:13:25.497Z,14.10
2023-04-05T18:15:54.445Z,13.90
2023-04-05T18:24:26.808Z,13.40
2023-04-05T18:26:53.939Z,13.30
2023-04-05T18:29:28.203Z,13.10
2023-04-05T18:31:55.882Z,12.80
2023-04-05T18:34:23.163Z,12.60
2023-04-05T18:36:51.284Z,12.40
2023-04-05T18:39:20.202Z,12.30
2023-04-05T18:41:47.332Z,12.10
2023-04-05T18:44:14.471Z,12.00
2023-04-05T18:46:41.935Z,11.80
2023-04-05T18:49:09.149Z,11.70
2023-04-05T18:51:36.316Z,11.70
2023-04-05T18:54:05.237Z,11.50
2023-04-05T18:56:32.269Z,11.40
2023-04-05T18:58:59.378Z,11.30
2023-04-05T19:01:26.585Z,11.20
2023-04-05T19:03:54.766Z,11.20
2023-04-05T19:06:25.315Z,11.20
2023-04-05T19:08:54.251Z,11.10
2023-04-05T19:11:25.370Z,11.10
2023-04-05T19:13:52.694Z,11.10
2023-04-05T19:16:19.947Z,11.00
2023-04-05T19:18:47.609Z,10.90
2023-04-05T19:21:14.659Z,10.70
2023-04-05T19:23:42.125Z,10.50
2023-04-05T19:28:50.090Z,10.30
2023-04-05T19:31:17.593Z,10.20
2023-04-05T19:33:46.402Z,10.10
2023-04-05T19:36:13.589Z,10.10
2023-04-05T19:38:42.092Z,10.00
2023-04-05T19:41:09.452Z,10.10
2023-04-05T19:43:42.072Z,9.90
2023-04-05T19:46:11.176Z,9.70
2023-04-05T19:48:44.130Z,9.60
2023-04-05T19:51:16.918Z,9.70
2023-04-05T19:53:51.434Z,9.40
2023-04-05T19:56:27.485Z,9.30
2023-04-05T19:59:15.744Z,9.20
2023-04-05T20:01:47.659Z,9.20
2023-04-05T20:04:16.569Z,9.20
2023-04-05T20:06:58.231Z,9.20
2023-04-05T20:09:30.871Z,9.20
2023-04-05T20:12:05.168Z,9.00
2023-04-05T20:14:46.090Z,8.80
2023-04-05T20:17:21.263Z,8.80
2023-04-05T20:20:11.134Z,8.70
2023-04-05T20:22:40.724Z,8.60
2023-04-05T20:25:57.577Z,8.40
2023-04-05T20:28:29.676Z,8.40
2023-04-05T20:31:01.367Z,8.40
2023-04-05T20:34:06.491Z,8.30
2023-04-05T20:37:00.199Z,8.20
2023-04-05T20:39:31.761Z,8.10
2023-04-05T20:41:59.669Z,8.00
2023-04-05T20:44:41.605Z,8.00
2023-04-05T20:47:08.944Z,8.00
2023-04-05T20:49:36.367Z,8.00
2023-04-05T20:52:07.864Z,8.10
2023-04-05T20:54:43.426Z,8.10
2023-04-05T20:57:12.561Z,8.00
2023-04-05T20:59:43.259Z,7.90
2023-04-05T21:02:18.428Z,7.90
2023-04-05T21:04:49.907Z,7.90
2023-04-05T21:07:19.842Z,7.80
2023-04-05T21:09:47.415Z,7.60
2023-04-05T21:12:23.160Z,7.60
2023-04-05T21:14:52.129Z,7.40
2023-04-05T21:17:19.934Z,7.40
2023-04-05T21:19:47.636Z,7.30
2023-04-05T21:22:19.809Z,7.20
2023-04-05T21:24:47.649Z,7.10
2023-04-05T21:27:18.714Z,7.10
2023-04-05T21:29:47.410Z,7.00
2023-04-05T21:32:15.360Z,7.10
2023-04-05T21:34:42.804Z,7.00
2023-04-05T21:37:12.868Z,6.90
2023-04-05T21:39:48.089Z,6.90
2023-04-05T21:42:20.772Z,6.90
2023-04-05T21:44:48.067Z,7.00
2023-04-05T21:47:19.079Z,7.20
2023-04-05T21:49:49.107Z,7.10
2023-04-05T21:52:24.121Z,7.10
2023-04-05T21:54:54.416Z,6.90
2023-04-05T21:57:22.301Z,6.90
2023-04-05T21:59:49.700Z,6.80
2023-04-05T22:02:26.547Z,6.70
2023-04-05T22:04:57.194Z,6.60
2023-04-05T22:07:36.038Z,6.50
2023-04-05T22:10:04.032Z,6.60
2023-04-05T22:12:31.206Z,6.60
2023-04-05T22:15:01.751Z,6.50
2023-04-05T22:17:31.724Z,6.40
2023-04-05T22:20:01.438Z,6.40
2023-04-05T22:22:28.548Z,6.30
2023-04-05T22:24:56.059Z,6.50
2023-04-05T22:27:23.449Z,6.40
2023-04-05T22:29:54.919Z,6.10
2023-04-05T22:32:26.752Z,6.10
2023-04-05T22:34:54.936Z,6.10
2023-04-05T22:37:22.873Z,6.00
2023-04-05T22:39:50.245Z,5.90
2023-04-05T22:42:17.512Z,5.90
2023-04-05T22:44:46.379Z,6.00
2023-04-05T22:47:16.000Z,5.90
2023-04-05T22:49:43.838Z,6.10
2023-04-05T22:52:11.642Z,6.00
2023-04-05T22:54:39.272Z,6.10
2023-04-05T22:57:11.937Z,5.90
2023-04-05T22:59:39.198Z,6.00
2023-04-05T23:02:07.142Z,6.10
2023-04-05T23:04:35.066Z,5.90
2023-04-05T23:07:02.798Z,5.90
2023-04-05T23:09:29.993Z,5.80
2023-04-05T23:11:59.778Z,5.70
2023-04-05T23:14:31.163Z,5.60
2023-04-05T23:19:52.007Z,5.80
2023-04-05T23:22:19.445Z,5.60
2023-04-05T23:24:46.789Z,5.50
2023-04-05T23:27:16.830Z,5.50
2023-04-05T23:29:43.897Z,5.40
2023-04-05T23:32:13.131Z,5.40
2023-04-05T23:34:41.592Z,5.40
2023-04-05T23:37:09.473Z,5.30
2023-04-05T23:39:37.470Z,5.30
2023-04-05T23:42:04.897Z,5.30
2023-04-05T23:44:37.868Z,5.30
2023-04-05T23:47:06.680Z,5.30
2023-04-05T23:49:36.456Z,5.40
2023-04-05T23:52:05.047Z,5.20
2023-04-05T23:54:32.504Z,5.20
2023-04-05T23:57:04.170Z,5.20
2023-04-05T23:59:34.352Z,5.30
